Flight Track Log - Related Links

Times and Time Zones

All times are in EDT time to prevent confusion due to time zone crossing. See the ASQ5685 flight status page for this flight to view local times or setup timezone preferences in your user account.

Time Position Orientation Groundspeed Altitude Reporting Facility
EDT Latitude Longitude Course Direction KTS MPH feet Rate Location/Type
Mon 02:50:03 PM 44.3153 -73.1508 195° South 219 252 8,400  Level Boston Center
Mon 02:51:00 PM 44.0375 -73.3117 196° South  Level FlightAware Approximate
Mon 02:51:03 PM 44.2444 -73.1819 197° South 256 295 10,900  Level Boston Center
Mon 02:52:00 PM 43.9518 -73.3460 196° South  Level FlightAware Approximate
Mon 02:52:03 PM 44.1608 -73.2156 196° South 290 334 13,000  Level Boston Center
Mon 02:53:00 PM 43.8660 -73.3793 195° South  Level FlightAware Approximate
Mon 02:53:03 PM 44.0750 -73.2522 197° South 315 362 14,600  Level Boston Center
Mon 02:54:00 PM 43.7799 -73.4111 195° South  Level FlightAware Approximate
Mon 02:54:03 PM 43.9831 -73.2911 197° South 338 389 16,200  Level Boston Center
Mon 02:55:00 PM 43.6937 -73.4428 195° South  Level FlightAware Approximate
Mon 02:55:03 PM 43.8869 -73.3331 197° South 360 414 17,800  Level Boston Center
Mon 02:56:03 PM 43.7886 -73.3747 197° South 365 420 19,200 1,700 Climbing Boston Center
Mon 02:57:03 PM 43.6947 -73.4136 197° South 365 420 21,200 1,900 Climbing Boston Center
Mon 02:58:03 PM 43.6025 -73.4492 196° South 360 414 23,000 1,650 Climbing Boston Center
Mon 02:59:03 PM 43.5106 -73.4878 197° South 354 407 24,500 1,300 Climbing Boston Center
Mon 03:00:03 PM 43.4164 -73.5261 196° South 354 407 25,600 950 Climbing Boston Center
Mon 03:01:03 PM 43.3203 -73.5644 196° South 354 407 26,400 800 Climbing Boston Center
Mon 03:02:03 PM 43.2239 -73.6083 198° South 365 420 27,200 750 Climbing Boston Center
Mon 03:03:03 PM 43.1403 -73.6381 195° South 370 426 27,900 400 Climbing Boston Center
Mon 03:04:03 PM 43.0272 -73.6897 198° South 381 438 28,000 50 Climbing Boston Center
Mon 03:05:03 PM 42.9203 -73.7331 197° South 393 452 28,000  Level Boston Center
Mon 03:06:03 PM 42.8094 -73.7786 197° South 406 467 28,000  Level Boston Center
Mon 03:07:03 PM 42.7025 -73.8244 197° South 406 467 28,000  Level Boston Center
Mon 03:08:03 PM 42.5850 -73.8811 200° South 404 465 28,000  Level Boston Center
Mon 03:09:03 PM 42.4781 -73.9292 198° South 404 465 28,000  Level Boston Center
Mon 03:10:03 PM 42.3775 -73.9719 197° South 404 465 28,000  Level Boston Center
Mon 03:11:03 PM 42.2831 -74.0172 200° South 385 443 28,000  Level Boston Center
Mon 03:12:03 PM 42.1911 -74.0400 190° South 360 414 28,000  Level Boston Center
Mon 03:13:03 PM 42.0953 -74.0461 183° South 350 403 28,000  Level Boston Center
Mon 03:14:03 PM 42.0033 -74.0494 182° South 345 397 28,000  Level Boston Center
Mon 03:16:04 PM 41.8156 -74.0581 182° South 353 406 28,000  Level New York Center
Mon 03:17:03 PM 41.7197 -74.0614 181° South 353 406 28,000  Level New York Center
Mon 03:18:03 PM 41.6236 -74.0678 183° South 353 406 28,000  Level New York Center
Mon 03:19:04 PM 41.5464 -74.0725 183° South 345 397 28,000 -397 Level New York Center
Mon 03:20:04 PM 41.4567 -74.0789 183° South 333 383 27,200 -900 Descending New York Center
Mon 03:21:04 PM 41.3628 -74.0853 183° South 333 383 26,200 -595 Descending New York Center
Mon 03:22:05 PM 41.2567 -74.0911 182° South 339 390 26,000 -101 Descending New York Center
Mon 03:23:03 PM 41.1583 -74.1000 184° South 350 403 26,000  Level New York Center
Mon 03:24:04 PM 41.0975 -74.1933 229° Southwest 324 373 26,000  Level New York Center
Mon 03:25:05 PM 41.0469 -74.2844 234° Southwest 324 373 26,000  Level New York Center
Mon 03:26:03 PM 40.9956 -74.3944 238° Southwest 339 390 26,000  Level New York Center
Mon 03:27:04 PM 40.9464 -74.5044 239° Southwest 351 404 26,000  Level New York Center
Mon 03:28:05 PM 40.8994 -74.6036 238° Southwest 344 396 26,000  Level New York Center
Mon 03:29:05 PM 40.8667 -74.7114 248° West 324 373 26,000 -51 Level New York Center
Mon 03:30:03 PM 40.8358 -74.8194 249° West 313 360 25,900 -508 Descending New York Center
Mon 03:31:03 PM 40.8008 -74.9269 247° West 313 360 25,000 -893 Descending New York Center
Mon 03:32:04 PM 40.7633 -75.0478 248° West 321 369 24,100 -836 Descending New York Center
Mon 03:33:05 PM 40.7611 -75.1628 269° West 321 369 23,300 -744 Descending New York Center
Mon 03:34:05 PM 40.7672 -75.2783 274° West 321 369 22,600 -793 Descending New York Center
Mon 03:35:06 PM 40.7197 -75.3736 237° Southwest 301 346 21,700 -857 Descending New York Center
Mon 03:36:04 PM 40.6619 -75.4683 231° Southwest 309 356 20,900 -807 Descending New York Center
Mon 03:37:05 PM 40.5975 -75.5650 229° Southwest 335 386 20,100 -454 Descending New York Center
Mon 03:38:03 PM 40.5353 -75.6617 230° Southwest 348 400 20,000 -51 Descending New York Center
Mon 03:39:03 PM 40.4728 -75.7611 230° Southwest 353 406 20,000  Level New York Center
Mon 03:40:04 PM 40.4061 -75.8597 228° Southwest 358 412 20,000  Level New York Center
Mon 03:41:05 PM 40.3347 -75.9633 228° Southwest 370 426 20,000 -248 Level New York Center
Mon 03:42:05 PM 40.2678 -76.0672 230° Southwest 375 432 19,500 -864 Descending New York Center
Mon 03:43:03 PM 40.2028 -76.1683 230° Southwest 370 426 18,300 -864 Descending New York Center
Mon 03:44:03 PM 40.1467 -76.2508 228° Southwest 358 412 17,800 -900 Descending New York Center
Mon 03:45:03 PM 40.0872 -76.3656 236° Southwest 353 406 16,500 -1,150 Descending New York Center
Mon 03:46:03 PM 40.0361 -76.4728 238° Southwest 348 400 15,500 -462 Descending New York Center
Mon 03:48:18 PM 39.9167 -76.7167 237° Southwest 354 407 15,000 -154 Descending Potomac TRACON
Mon 03:49:18 PM 39.8667 -76.8167 237° Southwest 350 403 15,000 -579 Level Potomac TRACON
Mon 03:50:12 PM 39.8333 -76.9167 247° West 342 394 13,900 -1,200 Descending Potomac TRACON
Mon 03:51:18 PM 39.7833 -77.0333 241° Southwest 335 386 12,600 -1,190 Descending Potomac TRACON
Mon 03:52:18 PM 39.7333 -77.1333 237° Southwest 331 381 11,400 -1,158 Descending Potomac TRACON
Mon 03:53:12 PM 39.6833 -77.2167 232° Southwest 325 374 10,400 -895 Descending Potomac TRACON
Mon 03:54:12 PM 39.6500 -77.3000 243° Southwest 281 323 9,700 -850 Descending Potomac TRACON
Mon 03:55:12 PM 39.5833 -77.3667 218° Southwest 265 305 8,700 -1,000 Descending Potomac TRACON
Mon 03:56:12 PM 39.5167 -77.4167 210° Southwest 261 300 7,700 -887 Descending Potomac TRACON
Mon 03:57:07 PM 39.4667 -77.4500 207° Southwest 259 298 7,000 -835 Descending Potomac TRACON
Mon 03:58:07 PM 39.3833 -77.4500 180° South 259 298 6,100 -905 Descending Potomac TRACON
Mon 03:59:13 PM 39.3167 -77.4500 180° South 265 305 5,100 -550 Descending Potomac TRACON
Mon 04:00:07 PM 39.2500 -77.4500 180° South 262 302 5,000 -158 Descending Potomac TRACON
Mon 04:01:07 PM 39.1833 -77.4500 180° South 209 241 4,800 -700 Descending Potomac TRACON
Mon 04:02:07 PM 39.1333 -77.4500 180° South 179 206 3,600 -1,100 Descending Potomac TRACON
Mon 04:03:07 PM 39.0833 -77.4500 180° South 177 204 2,600 -950 Descending Potomac TRACON
Mon 04:04:07 PM 39.0333 -77.4667 195° South 166 191 1,700 -900 Descending Potomac TRACON

Login

Don't have an account? Register now (free) for customized features, flight alerts, and more!